Time;durP1;ratioP1;P1;durP2;ratioP2;P2;SDS_P1;SDS_P2;PMS_P1;PMS_P2;Temp;Humidity;BMP_temperature;BMP_pressure;BME280_temperature;BME280_humidity;BME280_pressure;Samples;Min_cycle;Max_cycle;Signal;HPM_P1;HPM_P2
2023/06/24 00:01:15;;;;;;;48.63;28.43;;;;;;;;;;5050109;28;20163;-77
2023/06/24 00:03:40;;;;;;;47.20;27.90;;;;;;;;;;5047094;28;20326;-77
2023/06/24 00:06:18;;;;;;;44.35;28.27;;;;;;;;;;5050025;28;20484;-76
2023/06/24 00:08:46;;;;;;;49.33;28.50;;;;;;;;;;5044117;28;20055;-77
2023/06/24 00:11:13;;;;;;;44.63;28.10;;;;;;;;;;5049926;28;20024;-75
2023/06/24 00:13:39;;;;;;;40.60;27.38;;;;;;;;;;5048959;28;20247;-77
2023/06/24 00:16:06;;;;;;;45.45;26.75;;;;;;;;;;5050975;28;20040;-77
2023/06/24 00:18:31;;;;;;;40.40;26.55;;;;;;;;;;5052239;28;20033;-77
2023/06/24 00:20:58;;;;;;;41.58;25.50;;;;;;;;;;5052070;28;20035;-77
2023/06/24 00:23:26;;;;;;;45.05;26.35;;;;;;;;;;5053830;28;20091;-78
2023/06/24 00:25:54;;;;;;;45.85;26.83;;;;;;;;;;5055879;28;20062;-77
2023/06/24 00:28:23;;;;;;;50.88;28.45;;;;;;;;;;5054361;28;20076;-77
2023/06/24 00:30:50;;;;;;;46.00;26.85;;;;;;;;;;5055906;28;20017;-77
2023/06/24 00:33:19;;;;;;;45.60;26.33;;;;;;;;;;5054394;28;20061;-77
2023/06/24 00:35:45;;;;;;;45.72;27.33;;;;;;;;;;5055586;28;20021;-78
2023/06/24 00:38:10;;;;;;;43.83;26.42;;;;;;;;;;5054231;28;20421;-77
2023/06/24 00:40:38;;;;;;;42.37;25.67;;;;;;;;;;5055579;28;20463;-77
2023/06/24 00:43:04;;;;;;;46.90;26.30;;;;;;;;;;5054439;28;20287;-77
2023/06/24 00:45:30;;;;;;;38.22;25.38;;;;;;;;;;5055273;28;20092;-78
2023/06/24 00:48:00;;;;;;;40.60;25.10;;;;;;;;;;5055320;28;20032;-77
2023/06/24 00:50:26;;;;;;;41.92;25.45;;;;;;;;;;5055195;28;20029;-77
2023/06/24 00:52:51;;;;;;;37.25;24.63;;;;;;;;;;5055129;28;20079;-77
2023/06/24 00:55:20;;;;;;;42.93;24.10;;;;;;;;;;5055297;28;20029;-77
2023/06/24 00:57:54;;;;;;;39.45;24.33;;;;;;;;;;5054010;28;20298;-77
2023/06/24 01:00:23;;;;;;;33.97;22.92;;;;;;;;;;5055084;28;20377;-77
2023/06/24 01:02:49;;;;;;;40.28;23.60;;;;;;;;;;5054024;28;20102;-77
2023/06/24 01:05:15;;;;;;;37.08;22.30;;;;;;;;;;5054575;28;20493;-76
2023/06/24 01:07:42;;;;;;;40.30;22.30;;;;;;;;;;5055226;28;20028;-76
2023/06/24 01:10:09;;;;;;;31.23;20.08;;;;;;;;;;5053674;28;20025;-76
2023/06/24 01:12:47;;;;;;;31.38;20.33;;;;;;;;;;5053594;28;20124;-77
2023/06/24 01:15:33;;;;;;;30.05;19.85;;;;;;;;;;5054889;28;20047;-77
2023/06/24 01:18:06;;;;;;;29.33;18.83;;;;;;;;;;5054368;28;20028;-78
2023/06/24 01:20:41;;;;;;;28.42;19.13;;;;;;;;;;5054778;28;20025;-78
2023/06/24 01:23:25;;;;;;;28.10;18.98;;;;;;;;;;5055154;28;20021;-78
2023/06/24 01:25:54;;;;;;;23.48;16.77;;;;;;;;;;5054535;28;20029;-76
2023/06/24 01:28:39;;;;;;;22.65;15.38;;;;;;;;;;5054652;28;20017;-77
2023/06/24 01:31:10;;;;;;;20.92;15.57;;;;;;;;;;5054448;28;20413;-77
2023/06/24 01:33:56;;;;;;;19.65;15.40;;;;;;;;;;5054239;28;20036;-77
2023/06/24 01:36:25;;;;;;;24.15;13.98;;;;;;;;;;5054095;28;20032;-77
2023/06/24 01:38:57;;;;;;;20.73;13.68;;;;;;;;;;5055172;28;20479;-77
2023/06/24 01:41:24;;;;;;;18.73;13.32;;;;;;;;;;5052923;28;20021;-77
2023/06/24 01:43:54;;;;;;;15.00;12.00;;;;;;;;;;5053167;28;20029;-78
2023/06/24 01:46:25;;;;;;;16.23;11.43;;;;;;;;;;5054172;28;20481;-77
2023/06/24 01:48:53;;;;;;;12.00;10.17;;;;;;;;;;5054359;28;20025;-78
2023/06/24 01:51:20;;;;;;;12.00;9.15;;;;;;;;;;5054093;28;20358;-78
2023/06/24 01:53:49;;;;;;;13.38;8.60;;;;;;;;;;5052477;28;20039;-78
2023/06/24 01:56:15;;;;;;;11.68;8.45;;;;;;;;;;5051677;28;20120;-77
2023/06/24 01:59:11;;;;;;;16.08;9.48;;;;;;;;;;5052477;28;20520;-78
2023/06/24 02:01:40;;;;;;;13.73;7.82;;;;;;;;;;5051453;28;20116;-79
2023/06/24 02:04:08;;;;;;;12.90;8.77;;;;;;;;;;5051582;28;20056;-77
2023/06/24 02:06:36;;;;;;;11.20;7.88;;;;;;;;;;5048862;28;20119;-78
2023/06/24 02:09:10;;;;;;;12.65;8.45;;;;;;;;;;5051684;28;20094;-78
2023/06/24 02:11:37;;;;;;;10.23;7.95;;;;;;;;;;5051363;28;20017;-78
2023/06/24 02:14:16;;;;;;;11.43;7.93;;;;;;;;;;5052529;28;20025;-77
2023/06/24 02:16:50;;;;;;;13.48;8.15;;;;;;;;;;5053603;28;20462;-77
2023/06/24 02:19:17;;;;;;;12.07;8.57;;;;;;;;;;5053496;28;20079;-78
2023/06/24 02:21:44;;;;;;;12.55;8.07;;;;;;;;;;5052541;28;20075;-77
2023/06/24 02:24:18;;;;;;;15.32;8.75;;;;;;;;;;5051525;28;20033;-77
2023/06/24 02:26:45;;;;;;;9.40;8.15;;;;;;;;;;5053264;28;20505;-79
2023/06/24 02:29:12;;;;;;;12.95;8.52;;;;;;;;;;5052312;28;20032;-78
2023/06/24 02:31:47;;;;;;;13.45;9.00;;;;;;;;;;5052034;28;20044;-78
2023/06/24 02:34:12;;;;;;;13.15;9.15;;;;;;;;;;5053420;28;20444;-79
2023/06/24 02:36:37;;;;;;;10.77;8.35;;;;;;;;;;5052120;28;20033;-78
2023/06/24 02:39:04;;;;;;;12.18;8.63;;;;;;;;;;5053377;28;20457;-79
2023/06/24 02:41:29;;;;;;;12.70;8.98;;;;;;;;;;5053129;28;20056;-77
2023/06/24 02:43:54;;;;;;;13.67;8.63;;;;;;;;;;5053307;28;20068;-79
2023/06/24 02:46:29;;;;;;;16.57;8.80;;;;;;;;;;5052424;28;20703;-77
2023/06/24 02:48:56;;;;;;;12.90;8.45;;;;;;;;;;5053309;28;20755;-78
2023/06/24 02:51:24;;;;;;;10.68;8.02;;;;;;;;;;5052930;28;20497;-78
2023/06/24 02:53:53;;;;;;;12.45;8.98;;;;;;;;;;5052106;28;20024;-78
2023/06/24 02:56:20;;;;;;;13.55;8.90;;;;;;;;;;5052824;28;20466;-78
2023/06/24 02:58:46;;;;;;;11.95;7.22;;;;;;;;;;5052917;28;20025;-78
2023/06/24 03:01:12;;;;;;;12.00;7.00;;;;;;;;;;5051664;28;20029;-78
2023/06/24 03:03:37;;;;;;;17.00;8.38;;;;;;;;;;5052448;28;20052;-79
2023/06/24 03:06:05;;;;;;;14.30;8.48;;;;;;;;;;5059131;28;20051;-77
2023/06/24 03:08:39;;;;;;;11.93;8.57;;;;;;;;;;5054625;28;20029;-77
2023/06/24 03:11:04;;;;;;;8.98;7.32;;;;;;;;;;5072856;28;20021;-78
2023/06/24 03:13:31;;;;;;;11.27;7.82;;;;;;;;;;5072879;28;20017;-78
2023/06/24 03:15:56;;;;;;;12.48;7.32;;;;;;;;;;5072384;28;20477;-77
2023/06/24 03:18:24;;;;;;;10.30;6.63;;;;;;;;;;5071482;28;20017;-78
2023/06/24 03:20:52;;;;;;;10.23;7.00;;;;;;;;;;5072755;28;20262;-78
2023/06/24 03:23:19;;;;;;;11.73;6.85;;;;;;;;;;5072890;28;20074;-78
2023/06/24 03:25:45;;;;;;;12.85;7.72;;;;;;;;;;5071812;28;20028;-78
2023/06/24 03:28:11;;;;;;;9.68;7.35;;;;;;;;;;5072702;28;20021;-77
2023/06/24 03:30:38;;;;;;;11.45;7.20;;;;;;;;;;5071353;28;20437;-77
2023/06/24 03:33:05;;;;;;;8.73;7.13;;;;;;;;;;5072380;28;20485;-77
2023/06/24 03:35:32;;;;;;;10.35;6.82;;;;;;;;;;5073010;28;20077;-78
2023/06/24 03:38:00;;;;;;;11.48;7.25;;;;;;;;;;5072459;28;20017;-77
2023/06/24 03:40:25;;;;;;;8.93;6.88;;;;;;;;;;5073048;28;20032;-78
2023/06/24 03:42:50;;;;;;;10.37;7.13;;;;;;;;;;5072539;28;20346;-77
2023/06/24 03:45:17;;;;;;;10.65;7.43;;;;;;;;;;5072432;28;20298;-77
2023/06/24 03:47:42;;;;;;;10.38;7.50;;;;;;;;;;5071047;28;20027;-77
2023/06/24 03:50:08;;;;;;;11.17;7.87;;;;;;;;;;5072665;28;20021;-78
2023/06/24 03:52:34;;;;;;;12.73;7.32;;;;;;;;;;5071151;28;20270;-78
2023/06/24 03:55:03;;;;;;;10.18;7.28;;;;;;;;;;5070965;28;20039;-78
2023/06/24 03:57:30;;;;;;;10.10;7.25;;;;;;;;;;5074112;28;20488;-78
2023/06/24 03:59:56;;;;;;;10.15;6.93;;;;;;;;;;5076026;28;20519;-78
2023/06/24 04:02:23;;;;;;;11.35;6.43;;;;;;;;;;5076046;28;20051;-77
2023/06/24 04:04:55;;;;;;;10.25;6.35;;;;;;;;;;5075618;28;20123;-77
2023/06/24 04:07:27;;;;;;;10.88;6.80;;;;;;;;;;5074805;28;20055;-78
2023/06/24 04:09:54;;;;;;;8.90;6.38;;;;;;;;;;5074961;28;20025;-78
2023/06/24 04:12:21;;;;;;;9.27;6.97;;;;;;;;;;5074669;28;20032;-78
2023/06/24 04:14:46;;;;;;;8.85;6.55;;;;;;;;;;5075853;28;20028;-78
2023/06/24 04:17:12;;;;;;;10.50;6.13;;;;;;;;;;5075776;28;20032;-78
2023/06/24 04:19:39;;;;;;;9.88;6.32;;;;;;;;;;5075585;28;20770;-79
2023/06/24 04:22:06;;;;;;;11.27;6.55;;;;;;;;;;5075936;28;20473;-79
2023/06/24 04:24:32;;;;;;;12.98;6.32;;;;;;;;;;5076012;28;20028;-78
2023/06/24 04:27:00;;;;;;;10.70;5.40;;;;;;;;;;5075725;28;20024;-78
2023/06/24 04:29:26;;;;;;;10.32;5.93;;;;;;;;;;5075972;28;20027;-78
2023/06/24 04:32:06;;;;;;;7.50;5.90;;;;;;;;;;5075870;28;20016;-80
2023/06/24 04:34:33;;;;;;;7.25;5.13;;;;;;;;;;5075533;28;20457;-79
2023/06/24 04:36:59;;;;;;;10.48;5.35;;;;;;;;;;5075492;28;20042;-77
2023/06/24 04:39:25;;;;;;;6.50;4.97;;;;;;;;;;5074623;28;20032;-77
2023/06/24 04:41:52;;;;;;;6.87;5.63;;;;;;;;;;5074980;28;20553;-78
2023/06/24 04:44:19;;;;;;;7.40;5.30;;;;;;;;;;5075340;28;20784;-78
2023/06/24 04:46:45;;;;;;;9.82;5.05;;;;;;;;;;5076160;28;20017;-79
2023/06/24 04:49:11;;;;;;;8.90;4.95;;;;;;;;;;5075800;28;20036;-77
2023/06/24 04:51:37;;;;;;;10.32;5.65;;;;;;;;;;5075647;28;20070;-77
2023/06/24 04:54:03;;;;;;;8.70;5.25;;;;;;;;;;5075118;28;20408;-77
2023/06/24 04:56:29;;;;;;;8.15;5.60;;;;;;;;;;5073672;28;20059;-76
2023/06/24 04:58:55;;;;;;;8.43;5.20;;;;;;;;;;5074035;28;20434;-77
2023/06/24 05:01:21;;;;;;;9.13;5.30;;;;;;;;;;5075062;28;20334;-77
2023/06/24 05:03:48;;;;;;;9.60;5.50;;;;;;;;;;5073437;28;20099;-78
2023/06/24 05:06:14;;;;;;;7.20;5.55;;;;;;;;;;5074986;28;20055;-79
2023/06/24 05:08:41;;;;;;;6.25;4.50;;;;;;;;;;5071469;28;20385;-78
2023/06/24 05:11:06;;;;;;;7.40;5.28;;;;;;;;;;5075099;28;20563;-78
2023/06/24 05:13:32;;;;;;;7.53;4.90;;;;;;;;;;5074501;28;20037;-79
2023/06/24 05:15:58;;;;;;;11.90;6.22;;;;;;;;;;5074762;28;20710;-78
2023/06/24 05:18:25;;;;;;;7.85;5.05;;;;;;;;;;5074399;28;20020;-69
2023/06/24 05:20:51;;;;;;;8.60;5.88;;;;;;;;;;5074361;28;20066;-74
2023/06/24 05:23:17;;;;;;;9.48;5.63;;;;;;;;;;5074929;28;20040;-73
2023/06/24 05:25:42;;;;;;;8.43;5.18;;;;;;;;;;5051604;28;20040;-73
2023/06/24 05:28:09;;;;;;;15.60;5.90;;;;;;;;;;5048123;28;20029;-72
2023/06/24 05:30:34;;;;;;;9.20;5.63;;;;;;;;;;5043039;28;20322;-73
2023/06/24 05:32:59;;;;;;;13.98;5.80;;;;;;;;;;5040606;28;20021;-70
2023/06/24 05:35:25;;;;;;;6.72;4.35;;;;;;;;;;5046540;28;20033;-72
2023/06/24 05:37:51;;;;;;;10.60;5.87;;;;;;;;;;5042803;28;20071;-69
2023/06/24 05:40:18;;;;;;;9.32;5.18;;;;;;;;;;5042217;28;20298;-70
2023/06/24 05:42:44;;;;;;;10.75;5.60;;;;;;;;;;5054254;28;20033;-71
2023/06/24 05:45:10;;;;;;;11.18;5.78;;;;;;;;;;5054349;28;20028;-70
2023/06/24 05:47:46;;;;;;;11.68;5.15;;;;;;;;;;5054174;28;20029;-67
2023/06/24 05:50:12;;;;;;;8.30;4.75;;;;;;;;;;5048717;28;20017;-70
2023/06/24 05:52:38;;;;;;;9.80;5.28;;;;;;;;;;5034418;28;20022;-68
2023/06/24 05:55:07;;;;;;;7.57;5.30;;;;;;;;;;5051234;28;20029;-70
2023/06/24 05:57:34;;;;;;;9.05;5.35;;;;;;;;;;5054163;28;20079;-70
2023/06/24 06:00:00;;;;;;;9.45;5.18;;;;;;;;;;5040092;28;20033;-71
2023/06/24 06:02:26;;;;;;;7.27;4.90;;;;;;;;;;5034976;28;20390;-71
2023/06/24 06:04:52;;;;;;;8.30;4.78;;;;;;;;;;5039687;28;20773;-67
2023/06/24 06:07:18;;;;;;;6.18;4.45;;;;;;;;;;5032880;28;20101;-70
2023/06/24 06:09:44;;;;;;;8.60;5.25;;;;;;;;;;5033999;28;20025;-69
2023/06/24 06:12:11;;;;;;;8.02;5.20;;;;;;;;;;5033677;28;20029;-68
2023/06/24 06:14:37;;;;;;;9.77;5.13;;;;;;;;;;5033750;28;20037;-69
2023/06/24 06:17:02;;;;;;;7.65;5.20;;;;;;;;;;5033556;28;20425;-69
2023/06/24 06:19:27;;;;;;;10.40;6.05;;;;;;;;;;5033546;28;20021;-70
2023/06/24 06:21:54;;;;;;;10.07;5.47;;;;;;;;;;5032641;28;20071;-70
2023/06/24 06:24:19;;;;;;;6.70;4.93;;;;;;;;;;5033863;28;20288;-70
2023/06/24 06:26:46;;;;;;;8.70;5.95;;;;;;;;;;5033297;28;20029;-70
2023/06/24 06:29:13;;;;;;;10.13;6.22;;;;;;;;;;5033265;28;20056;-72
2023/06/24 06:31:39;;;;;;;7.40;5.15;;;;;;;;;;5032103;28;20421;-70
2023/06/24 06:34:06;;;;;;;9.60;5.13;;;;;;;;;;5033455;28;20381;-70
2023/06/24 06:36:32;;;;;;;6.70;4.45;;;;;;;;;;5034454;28;20462;-70
2023/06/24 06:38:58;;;;;;;7.45;4.72;;;;;;;;;;5033207;28;20166;-71
2023/06/24 06:41:24;;;;;;;7.00;5.20;;;;;;;;;;5033179;28;20037;-69
2023/06/24 06:43:51;;;;;;;10.27;5.50;;;;;;;;;;5033453;28;20288;-69
2023/06/24 06:46:18;;;;;;;7.00;5.05;;;;;;;;;;5031957;28;20025;-69
2023/06/24 06:48:43;;;;;;;7.05;5.05;;;;;;;;;;5033859;28;20025;-73
2023/06/24 06:51:09;;;;;;;9.10;5.60;;;;;;;;;;5042519;28;20097;-72
2023/06/24 06:53:34;;;;;;;7.07;5.55;;;;;;;;;;5073158;28;20259;-72
2023/06/24 06:56:01;;;;;;;7.60;6.20;;;;;;;;;;5072748;28;20441;-73
2023/06/24 06:58:27;;;;;;;11.23;6.30;;;;;;;;;;5073015;28;20341;-71
2023/06/24 07:00:53;;;;;;;8.65;6.25;;;;;;;;;;5072953;28;20028;-72
2023/06/24 07:03:21;;;;;;;10.15;6.93;;;;;;;;;;5072637;28;20074;-72
2023/06/24 07:05:47;;;;;;;10.30;6.75;;;;;;;;;;5072877;28;20473;-72
2023/06/24 07:08:14;;;;;;;9.50;6.65;;;;;;;;;;5073176;28;20013;-72
2023/06/24 07:10:40;;;;;;;12.75;7.18;;;;;;;;;;5072925;28;20056;-73
2023/06/24 07:13:06;;;;;;;8.35;6.22;;;;;;;;;;5072881;28;20024;-72
2023/06/24 07:15:31;;;;;;;9.82;6.85;;;;;;;;;;5073180;28;20027;-73
2023/06/24 07:17:57;;;;;;;8.23;6.80;;;;;;;;;;5072812;28;20028;-72
2023/06/24 07:20:23;;;;;;;15.57;7.32;;;;;;;;;;5051412;28;20272;-75
2023/06/24 07:22:49;;;;;;;8.75;5.90;;;;;;;;;;5033268;28;20033;-70
2023/06/24 07:25:29;;;;;;;10.18;6.68;;;;;;;;;;5032678;28;20454;-72
2023/06/24 07:27:55;;;;;;;11.35;7.15;;;;;;;;;;5032526;28;20021;-69
2023/06/24 07:30:29;;;;;;;8.98;6.30;;;;;;;;;;5032672;28;20028;-70
2023/06/24 07:32:55;;;;;;;11.05;7.47;;;;;;;;;;5052661;28;20032;-71
2023/06/24 07:35:22;;;;;;;8.90;6.35;;;;;;;;;;5056384;28;20553;-74
2023/06/24 07:37:48;;;;;;;11.63;7.13;;;;;;;;;;5056776;28;20446;-74
2023/06/24 07:40:14;;;;;;;9.23;7.05;;;;;;;;;;5055533;28;20098;-72
2023/06/24 07:42:45;;;;;;;12.70;7.50;;;;;;;;;;5056905;28;20032;-73
2023/06/24 07:45:10;;;;;;;13.45;7.00;;;;;;;;;;5055476;28;20025;-72
2023/06/24 07:47:35;;;;;;;9.98;7.53;;;;;;;;;;5056556;28;20382;-72
2023/06/24 07:50:01;;;;;;;9.48;6.80;;;;;;;;;;5056293;28;20017;-71
2023/06/24 07:52:27;;;;;;;10.73;7.30;;;;;;;;;;5056368;28;20040;-70
2023/06/24 07:54:53;;;;;;;10.10;7.18;;;;;;;;;;5043276;28;20280;-74
2023/06/24 07:57:20;;;;;;;13.73;6.95;;;;;;;;;;5036603;28;20023;-72
2023/06/24 07:59:46;;;;;;;7.47;6.22;;;;;;;;;;5036504;28;20041;-72
2023/06/24 08:02:12;;;;;;;9.50;7.05;;;;;;;;;;5036674;28;20411;-71
2023/06/24 08:04:40;;;;;;;12.52;6.93;;;;;;;;;;5036458;28;20133;-78
2023/06/24 08:07:08;;;;;;;10.50;7.82;;;;;;;;;;5036373;28;20462;-75
2023/06/24 08:09:33;;;;;;;10.80;7.32;;;;;;;;;;5036653;28;20017;-75
2023/06/24 08:11:58;;;;;;;12.13;7.83;;;;;;;;;;5037331;28;20512;-79
2023/06/24 08:14:25;;;;;;;11.20;8.65;;;;;;;;;;5037586;28;20387;-80
2023/06/24 08:16:52;;;;;;;10.80;8.75;;;;;;;;;;5056350;28;20151;-79
2023/06/24 08:19:20;;;;;;;9.75;8.02;;;;;;;;;;5056075;28;20477;-75
2023/06/24 08:22:00;;;;;;;11.38;8.32;;;;;;;;;;5056286;28;20020;-72
2023/06/24 08:24:26;;;;;;;9.32;8.13;;;;;;;;;;5055796;28;20056;-75
2023/06/24 08:26:56;;;;;;;12.10;8.50;;;;;;;;;;5055602;28;20056;-74
2023/06/24 08:29:22;;;;;;;10.75;8.98;;;;;;;;;;5056232;28;20095;-73
2023/06/24 08:31:48;;;;;;;11.35;8.57;;;;;;;;;;5056069;28;20453;-75
2023/06/24 08:34:14;;;;;;;11.07;8.48;;;;;;;;;;5055008;28;20037;-74
2023/06/24 08:36:42;;;;;;;9.73;7.60;;;;;;;;;;5055759;28;20025;-70
2023/06/24 08:39:07;;;;;;;12.90;8.55;;;;;;;;;;5055898;28;20025;-73
2023/06/24 08:41:33;;;;;;;9.43;8.18;;;;;;;;;;5054397;28;20492;-71
2023/06/24 08:43:58;;;;;;;10.27;8.40;;;;;;;;;;5054433;28;20381;-73
2023/06/24 08:46:24;;;;;;;10.48;8.38;;;;;;;;;;5054281;28;20072;-72
2023/06/24 08:48:53;;;;;;;9.93;8.02;;;;;;;;;;5055931;28;20159;-73
2023/06/24 08:51:23;;;;;;;13.27;8.02;;;;;;;;;;5051068;28;20024;-73
2023/06/24 08:53:49;;;;;;;10.18;8.20;;;;;;;;;;5053571;28;20029;-73
2023/06/24 08:56:18;;;;;;;10.60;8.98;;;;;;;;;;5059237;28;20098;-70
2023/06/24 08:58:43;;;;;;;10.13;8.50;;;;;;;;;;5074524;28;20478;-72
2023/06/24 09:01:10;;;;;;;9.70;7.15;;;;;;;;;;5073636;28;20024;-73
2023/06/24 09:03:36;;;;;;;15.70;8.65;;;;;;;;;;5073391;28;20047;-73
2023/06/24 09:06:01;;;;;;;11.90;8.50;;;;;;;;;;5073253;28;20144;-74
2023/06/24 09:08:27;;;;;;;12.10;8.00;;;;;;;;;;5073276;28;20040;-73
2023/06/24 09:10:56;;;;;;;13.60;8.73;;;;;;;;;;5074660;28;20071;-72
2023/06/24 09:13:43;;;;;;;10.43;8.77;;;;;;;;;;5056478;28;20037;-72
2023/06/24 09:16:11;;;;;;;14.73;10.85;;;;;;;;;;5075333;28;20028;-74
2023/06/24 09:18:42;;;;;;;11.45;9.60;;;;;;;;;;5074807;28;20120;-72
2023/06/24 09:21:07;;;;;;;11.57;10.05;;;;;;;;;;5073377;28;20031;-73
2023/06/24 09:23:39;;;;;;;10.68;9.32;;;;;;;;;;5074560;28;20021;-73
2023/06/24 09:26:09;;;;;;;12.50;9.18;;;;;;;;;;5072989;28;20021;-73
2023/06/24 09:28:35;;;;;;;12.93;11.15;;;;;;;;;;5073150;28;20028;-72
2023/06/24 09:31:10;;;;;;;13.67;9.37;;;;;;;;;;5074402;28;20027;-72
2023/06/24 09:33:36;;;;;;;15.05;9.75;;;;;;;;;;5074338;28;20281;-73
2023/06/24 09:36:04;;;;;;;15.52;10.05;;;;;;;;;;5074375;28;20069;-72
2023/06/24 09:38:37;;;;;;;13.85;10.27;;;;;;;;;;5070196;28;20036;-70
2023/06/24 09:41:04;;;;;;;13.73;9.90;;;;;;;;;;5074021;28;20021;-71
2023/06/24 09:43:30;;;;;;;14.20;9.40;;;;;;;;;;5034178;28;20573;-72
2023/06/24 09:46:00;;;;;;;14.27;10.38;;;;;;;;;;5032550;28;20032;-71
2023/06/24 09:48:26;;;;;;;13.00;10.02;;;;;;;;;;5034699;28;20045;-71
2023/06/24 09:50:55;;;;;;;13.88;10.00;;;;;;;;;;5034676;28;20091;-71
2023/06/24 09:53:21;;;;;;;12.90;10.13;;;;;;;;;;5033746;28;20021;-69
2023/06/24 09:56:08;;;;;;;12.57;9.82;;;;;;;;;;5052446;28;20025;-70
2023/06/24 09:58:38;;;;;;;15.40;10.50;;;;;;;;;;5052305;28;20021;-71
2023/06/24 10:01:05;;;;;;;12.18;9.60;;;;;;;;;;5052216;28;20036;-71
2023/06/24 10:03:35;;;;;;;11.38;9.60;;;;;;;;;;5053586;28;20069;-71
2023/06/24 10:06:02;;;;;;;10.45;9.35;;;;;;;;;;5054304;28;20029;-71
2023/06/24 10:08:30;;;;;;;13.90;9.98;;;;;;;;;;5052944;28;20029;-73
2023/06/24 10:10:56;;;;;;;13.52;9.30;;;;;;;;;;5052695;28;20104;-70
2023/06/24 10:13:24;;;;;;;13.45;9.93;;;;;;;;;;5053887;28;20013;-72
2023/06/24 10:15:49;;;;;;;11.35;9.30;;;;;;;;;;5052582;28;20067;-70
2023/06/24 10:18:35;;;;;;;12.52;9.10;;;;;;;;;;5053815;28;20040;-74
2023/06/24 10:21:01;;;;;;;12.00;9.32;;;;;;;;;;5053898;28;20032;-71
2023/06/24 10:23:46;;;;;;;10.73;8.57;;;;;;;;;;5053865;28;20595;-71
2023/06/24 10:26:23;;;;;;;13.02;9.60;;;;;;;;;;5054053;28;20466;-71
2023/06/24 10:29:07;;;;;;;11.07;9.00;;;;;;;;;;5052328;28;20032;-73
2023/06/24 10:31:42;;;;;;;13.40;8.27;;;;;;;;;;5053838;28;20056;-73
2023/06/24 10:34:28;;;;;;;13.80;8.88;;;;;;;;;;5053661;28;20058;-74
2023/06/24 10:37:13;;;;;;;10.05;8.02;;;;;;;;;;5036365;28;20025;-77
2023/06/24 10:39:45;;;;;;;11.32;8.77;;;;;;;;;;5054127;28;20087;-73
2023/06/24 10:42:28;;;;;;;8.95;7.93;;;;;;;;;;5053283;28;20013;-72
2023/06/24 10:45:07;;;;;;;12.25;8.75;;;;;;;;;;5053014;28;20486;-72
2023/06/24 10:47:33;;;;;;;10.30;8.40;;;;;;;;;;5053263;28;20021;-72
2023/06/24 10:49:58;;;;;;;9.65;8.60;;;;;;;;;;5053035;28;20020;-72
2023/06/24 10:52:25;;;;;;;14.00;8.13;;;;;;;;;;5053108;28;20517;-72
2023/06/24 10:54:52;;;;;;;10.55;7.20;;;;;;;;;;5051818;28;20059;-74
2023/06/24 10:57:28;;;;;;;8.43;7.45;;;;;;;;;;5051574;28;20025;-72
2023/06/24 11:00:00;;;;;;;8.15;7.13;;;;;;;;;;5050325;28;20013;-72
2023/06/24 11:02:27;;;;;;;8.65;6.57;;;;;;;;;;5050684;28;20036;-72
2023/06/24 11:04:54;;;;;;;7.72;6.93;;;;;;;;;;5058789;28;20045;-74
2023/06/24 11:07:26;;;;;;;7.25;6.55;;;;;;;;;;5060514;28;20043;-74
2023/06/24 11:09:52;;;;;;;8.10;6.90;;;;;;;;;;5062892;28;20493;-74
2023/06/24 11:12:18;;;;;;;7.70;6.72;;;;;;;;;;5061754;28;20028;-74
2023/06/24 11:14:44;;;;;;;8.18;6.53;;;;;;;;;;5059128;28;20055;-73
2023/06/24 11:17:09;;;;;;;10.35;7.00;;;;;;;;;;5058273;28;20120;-73
2023/06/24 11:19:38;;;;;;;7.70;6.95;;;;;;;;;;5052357;28;20040;-75
2023/06/24 11:22:10;;;;;;;8.50;6.82;;;;;;;;;;5044142;28;20071;-75
2023/06/24 11:24:36;;;;;;;8.80;6.05;;;;;;;;;;5032589;28;20036;-74
2023/06/24 11:27:01;;;;;;;6.13;5.53;;;;;;;;;;5030296;28;20021;-74
2023/06/24 11:29:39;;;;;;;7.13;6.03;;;;;;;;;;5031527;28;20499;-75
2023/06/24 11:32:07;;;;;;;7.90;6.00;;;;;;;;;;5042077;28;20024;-74
2023/06/24 11:34:33;;;;;;;8.68;6.28;;;;;;;;;;5071390;28;20115;-76
2023/06/24 11:37:09;;;;;;;8.68;7.65;;;;;;;;;;5069279;28;20028;-73
2023/06/24 11:39:34;;;;;;;9.23;7.60;;;;;;;;;;5051555;28;20036;-75
2023/06/24 11:42:00;;;;;;;8.47;7.13;;;;;;;;;;5056139;28;20373;-76
2023/06/24 11:44:27;;;;;;;8.70;6.68;;;;;;;;;;5072683;28;20024;-75
2023/06/24 11:46:52;;;;;;;10.80;7.18;;;;;;;;;;5070227;28;20114;-76
2023/06/24 11:49:18;;;;;;;8.70;7.28;;;;;;;;;;5051602;28;20401;-77
2023/06/24 11:51:49;;;;;;;6.95;6.25;;;;;;;;;;5051864;28;20420;-76
2023/06/24 11:54:30;;;;;;;7.03;6.13;;;;;;;;;;5072788;28;20028;-76
2023/06/24 11:56:55;;;;;;;10.88;7.07;;;;;;;;;;5069475;28;20275;-76
2023/06/24 11:59:25;;;;;;;9.50;6.57;;;;;;;;;;5052933;28;20512;-75
2023/06/24 12:01:59;;;;;;;8.35;6.43;;;;;;;;;;5053747;28;20096;-72
2023/06/24 12:04:31;;;;;;;8.00;5.75;;;;;;;;;;5071616;28;20041;-74
2023/06/24 12:06:58;;;;;;;7.78;6.07;;;;;;;;;;5072774;28;20017;-73
2023/06/24 12:09:32;;;;;;;6.85;6.15;;;;;;;;;;5071286;28;20411;-74
2023/06/24 12:12:00;;;;;;;9.13;7.00;;;;;;;;;;5073080;28;20036;-75
2023/06/24 12:14:25;;;;;;;8.30;5.85;;;;;;;;;;5072523;28;20032;-73
2023/06/24 12:16:52;;;;;;;7.45;5.68;;;;;;;;;;5072903;28;20463;-73
2023/06/24 12:19:20;;;;;;;6.70;5.95;;;;;;;;;;5075830;28;20032;-76
2023/06/24 12:21:46;;;;;;;9.68;6.07;;;;;;;;;;5076660;28;20138;-74
2023/06/24 12:24:13;;;;;;;12.27;6.47;;;;;;;;;;5076144;28;20119;-75
2023/06/24 12:26:40;;;;;;;6.88;5.85;;;;;;;;;;5076190;28;20276;-75
2023/06/24 12:29:07;;;;;;;9.93;5.88;;;;;;;;;;5074542;28;20021;-74
2023/06/24 12:31:32;;;;;;;7.43;6.10;;;;;;;;;;5075932;28;20365;-73
2023/06/24 12:34:06;;;;;;;23.38;6.65;;;;;;;;;;5074492;28;20028;-76
2023/06/24 12:36:32;;;;;;;9.60;6.07;;;;;;;;;;5075854;28;20099;-71
2023/06/24 12:38:59;;;;;;;6.35;5.70;;;;;;;;;;5074128;28;20039;-73
2023/06/24 12:41:26;;;;;;;7.80;5.70;;;;;;;;;;5075631;28;20033;-72
2023/06/24 12:43:52;;;;;;;7.60;5.80;;;;;;;;;;5076104;28;20105;-72
2023/06/24 12:46:18;;;;;;;10.10;5.70;;;;;;;;;;5075931;28;20058;-72
2023/06/24 12:48:45;;;;;;;9.52;5.80;;;;;;;;;;5074226;28;20028;-70
2023/06/24 12:51:11;;;;;;;8.27;5.63;;;;;;;;;;5075442;28;20122;-71
2023/06/24 12:53:37;;;;;;;8.05;5.68;;;;;;;;;;5075483;28;20021;-72
2023/06/24 12:56:03;;;;;;;8.87;5.60;;;;;;;;;;5075509;28;20034;-72
2023/06/24 12:58:28;;;;;;;9.52;5.60;;;;;;;;;;5075918;28;20013;-72
2023/06/24 13:00:55;;;;;;;6.97;5.30;;;;;;;;;;5075170;28;20031;-72
2023/06/24 13:03:21;;;;;;;5.50;5.00;;;;;;;;;;5075219;28;20658;-69
2023/06/24 13:05:46;;;;;;;10.80;5.35;;;;;;;;;;5075313;28;20013;-70
2023/06/24 13:08:20;;;;;;;8.20;5.43;;;;;;;;;;5075124;28;20025;-71
2023/06/24 13:10:45;;;;;;;7.88;5.82;;;;;;;;;;5075343;28;20346;-71
2023/06/24 13:13:11;;;;;;;5.95;5.10;;;;;;;;;;5075464;28;20096;-73
2023/06/24 13:15:37;;;;;;;6.35;5.72;;;;;;;;;;5075278;28;20458;-73
2023/06/24 13:18:06;;;;;;;7.57;5.10;;;;;;;;;;5075404;28;20358;-73
2023/06/24 13:20:33;;;;;;;7.88;5.30;;;;;;;;;;5075393;28;20024;-74
2023/06/24 13:23:03;;;;;;;6.22;5.03;;;;;;;;;;5075320;28;20012;-74
2023/06/24 13:25:29;;;;;;;7.80;5.07;;;;;;;;;;5073676;28;20020;-75
2023/06/24 13:27:55;;;;;;;7.47;5.75;;;;;;;;;;5075311;28;20028;-74
2023/06/24 13:30:21;;;;;;;5.97;4.67;;;;;;;;;;5073204;28;20314;-75
2023/06/24 13:32:49;;;;;;;7.07;5.25;;;;;;;;;;5075167;28;20397;-71
2023/06/24 13:35:14;;;;;;;7.88;5.20;;;;;;;;;;5074889;28;20089;-73
2023/06/24 13:37:40;;;;;;;13.13;7.00;;;;;;;;;;5073449;28;20024;-74
2023/06/24 13:40:08;;;;;;;9.18;5.80;;;;;;;;;;5075084;28;20023;-73
2023/06/24 13:42:34;;;;;;;8.95;6.07;;;;;;;;;;5073747;28;20036;-73
2023/06/24 13:45:01;;;;;;;5.85;5.00;;;;;;;;;;5074972;28;20380;-71
2023/06/24 13:47:28;;;;;;;9.38;5.72;;;;;;;;;;5075062;28;20016;-73
2023/06/24 13:49:55;;;;;;;8.82;4.63;;;;;;;;;;5074774;28;20047;-74
2023/06/24 13:52:21;;;;;;;8.88;5.63;;;;;;;;;;5074540;28;20027;-73
2023/06/24 13:54:47;;;;;;;9.98;4.80;;;;;;;;;;5073318;28;20418;-74
2023/06/24 13:57:15;;;;;;;5.65;4.93;;;;;;;;;;5074749;28;20036;-71
2023/06/24 13:59:55;;;;;;;7.28;5.07;;;;;;;;;;5073265;28;20465;-72
2023/06/24 14:02:21;;;;;;;5.93;4.82;;;;;;;;;;5074308;28;20020;-74
2023/06/24 14:04:48;;;;;;;6.70;4.97;;;;;;;;;;5073828;28;20052;-72
2023/06/24 14:07:14;;;;;;;6.85;4.80;;;;;;;;;;5074472;28;20032;-74
2023/06/24 14:09:40;;;;;;;4.35;3.95;;;;;;;;;;5074461;28;20017;-74
2023/06/24 14:12:06;;;;;;;5.88;4.55;;;;;;;;;;5056397;28;20063;-75
2023/06/24 14:14:34;;;;;;;6.70;4.32;;;;;;;;;;5072840;28;20032;-75
2023/06/24 14:17:00;;;;;;;6.60;4.90;;;;;;;;;;5072659;28;20109;-75
2023/06/24 14:19:27;;;;;;;6.75;4.80;;;;;;;;;;5072852;28;20025;-73
2023/06/24 14:21:54;;;;;;;6.80;4.70;;;;;;;;;;5073951;28;20496;-74
2023/06/24 14:24:20;;;;;;;5.88;4.47;;;;;;;;;;5074155;28;20021;-74
2023/06/24 14:26:48;;;;;;;5.72;4.25;;;;;;;;;;5073867;28;20461;-73
2023/06/24 14:29:15;;;;;;;9.13;4.85;;;;;;;;;;5073881;28;20021;-74
2023/06/24 14:31:40;;;;;;;7.60;4.53;;;;;;;;;;5072417;28;20108;-74
2023/06/24 14:34:06;;;;;;;5.17;4.40;;;;;;;;;;5074010;28;20024;-75
2023/06/24 14:36:31;;;;;;;4.38;3.97;;;;;;;;;;5074268;28;20032;-74
2023/06/24 14:38:58;;;;;;;6.50;5.07;;;;;;;;;;5074103;28;20040;-72